Details From PABR - Wiley Post Will Rogers Mem
To PARC - Arctic Village
Flight Number -
Tags Decoded
Created
Modified
Stats Distance 242 nm / 447 km
Max Altitude 0 ft / 0 m
Waypoints 11
Social Downloads 3
Likes 0
Share VATSIM

Download

Looking for another format? Having issues loading an existing format? Contact us
Advertisement - Login to hide

Notes

Decoded

Route

SEJYY OKIKE TUNDA FAMUN OOSIK YIGUF SCC UVALL WIMAN OILEE RIGGS

ID Type Via Altitude Latitude Longitude Leg Dist Tot Dist Heading (true) Name
O SEJYY FIX - 0 ft / 0 m 71.19300˚ -156.00189˚ - 0 nm - -
OKIKE FIX - 0 ft / 0 m 71.01137˚ -154.35323˚ 33 nm 33 nm 108° / 110° -
TUNDA FIX - 0 ft / 0 m 70.88613˚ -153.30306˚ 21 nm 55 nm 110° / 111° -
FAMUN FIX - 0 ft / 0 m 70.46601˚ -150.16755˚ 67 nm 123 nm 111° / 114° -
OOSIK FIX - 0 ft / 0 m 70.43943˚ -149.98583˚ 3 nm 126 nm 114° / 114° -
YIGUF FIX - 0 ft / 0 m 70.31069˚ -149.12919˚ 18 nm 145 nm 114° / 115° -
SCC VOR - 0 ft / 0 m 70.19919˚ -148.41617˚ 15 nm 161 nm 115° / 115° DEADHORSE VOR-DME
UVALL FIX - 0 ft / 0 m 69.94814˚ -148.16192˚ 15 nm 177 nm 161° / 161° -
WIMAN FIX - 0 ft / 0 m 69.49220˚ -147.71631˚ 28 nm 206 nm 161° / 161° -
OILEE FIX - 0 ft / 0 m 69.25592˚ -147.49319˚ 14 nm 221 nm 161° / 162° -
O RIGGS FIX - 0 ft / 0 m 68.94044˚ -147.20314˚ 19 nm 241 nm 162° / 162° -

Altitude Profile

Advertisement - Login to hide

Weather


0- 5 10 15 20 25 30 35+ Temperature / ° C

Clouds and Precipitation
Forecast for 2017-12-12 18:00 UTC. Updated an hour ago

Ground ~20,000 ft ~40,000 ft Winds

PABR

Details ICAO PABR (BRW)
Name WILEY POST WILL ROGERS MEM
Region USA (Alaska)
Timezone America/Anchorage (UTC-9.0)
Stats Elevation 44 ft / 13 m (AMSL)
Location 71.284660° -156.768746°
Runways 1
Magnetic Variation 14.526° E

METAR

PABR 121753Z 06025KT 3/4SM R07/P6000FT -SN BLSN BR BKN031 OVC043 M16/M18 A2994

Decode

TAF

PABR 121724Z 1218/1318 07026KT 3/4SM -SN BLSN BR OVC029 FM130600 07020KT 1 1/2SM -SN BR OVC050

Decode

Departure Runways

ID Width Length Bearing (true) Bearing (mag) Surface Threshold Offset Overrun Length
07 151 ft / 46 m 7,107 ft / 2,166 m 91.11° 76.58° Asphalt 0 ft / 0 m 0 ft / 0 m
25 151 ft / 46 m 7,107 ft / 2,166 m 271.17° 256.64° Asphalt 0 ft / 0 m 0 ft / 0 m

PARC

Details ICAO PARC (ARC)
Name Arctic_Village
Region USA (Alaska)
Timezone America/Anchorage (UTC-9.0)
Stats Elevation 2,084 ft / 635 m (AMSL)
Location 68.115838° -145.574587°
Runways 1
Magnetic Variation 18.780° E

METAR

PARC 121822Z AUTO 00000KT 1 1/4SM BR OVC002 M10/M11 A2973 RMK AO2 VIS 3/4V2 1/2 FZRANO

Decode

TAF

Not found

Destination Runways

ID Width Length Bearing (true) Bearing (mag) Surface Threshold Offset Overrun Length
02 75 ft / 23 m 4,505 ft / 1,373 m 44.99° 26.21° Gravel 0 ft / 0 m 0 ft / 0 m
20 75 ft / 23 m 4,505 ft / 1,373 m 225.01° 206.23° Gravel 0 ft / 0 m 0 ft / 0 m